sensor_id;sensor_type;location;lat;lon;timestamp;P1;durP1;ratioP1;P2;durP2;ratioP2
4424;SDS011;2225;53.568;13.266;2022-11-15T00:00:41;81.03;;;42.27;;
4424;SDS011;2225;53.568;13.266;2022-11-15T00:03:27;74.83;;;38.23;;
4424;SDS011;2225;53.568;13.266;2022-11-15T00:06:13;76.77;;;40.67;;
4424;SDS011;2225;53.568;13.266;2022-11-15T00:08:58;73.03;;;37.80;;
4424;SDS011;2225;53.568;13.266;2022-11-15T00:11:45;74.13;;;39.03;;
4424;SDS011;2225;53.568;13.266;2022-11-15T00:14:30;73.30;;;38.97;;
4424;SDS011;2225;53.568;13.266;2022-11-15T00:17:15;82.97;;;40.43;;
4424;SDS011;2225;53.568;13.266;2022-11-15T00:20:01;76.80;;;38.57;;
4424;SDS011;2225;53.568;13.266;2022-11-15T00:22:46;83.57;;;41.63;;
4424;SDS011;2225;53.568;13.266;2022-11-15T00:25:31;81.67;;;40.20;;
4424;SDS011;2225;53.568;13.266;2022-11-15T00:28:17;80.63;;;39.63;;
4424;SDS011;2225;53.568;13.266;2022-11-15T00:31:03;79.17;;;37.20;;
4424;SDS011;2225;53.568;13.266;2022-11-15T00:33:51;72.33;;;35.90;;
4424;SDS011;2225;53.568;13.266;2022-11-15T00:36:36;76.47;;;39.73;;
4424;SDS011;2225;53.568;13.266;2022-11-15T00:39:22;76.10;;;37.53;;
4424;SDS011;2225;53.568;13.266;2022-11-15T00:42:07;71.43;;;35.07;;
4424;SDS011;2225;53.568;13.266;2022-11-15T00:44:52;71.10;;;38.00;;
4424;SDS011;2225;53.568;13.266;2022-11-15T00:47:37;73.67;;;37.17;;
4424;SDS011;2225;53.568;13.266;2022-11-15T00:50:23;73.13;;;37.83;;
4424;SDS011;2225;53.568;13.266;2022-11-15T00:53:08;77.23;;;38.03;;
4424;SDS011;2225;53.568;13.266;2022-11-15T00:55:54;73.40;;;37.77;;
4424;SDS011;2225;53.568;13.266;2022-11-15T00:58:40;79.03;;;40.30;;
4424;SDS011;2225;53.568;13.266;2022-11-15T01:01:25;76.67;;;39.40;;
4424;SDS011;2225;53.568;13.266;2022-11-15T01:04:10;88.50;;;43.50;;
4424;SDS011;2225;53.568;13.266;2022-11-15T01:06:56;85.03;;;39.63;;
4424;SDS011;2225;53.568;13.266;2022-11-15T01:09:42;82.33;;;37.50;;
4424;SDS011;2225;53.568;13.266;2022-11-15T01:12:27;75.63;;;37.13;;
4424;SDS011;2225;53.568;13.266;2022-11-15T01:15:12;73.43;;;36.13;;
4424;SDS011;2225;53.568;13.266;2022-11-15T01:17:58;76.90;;;37.57;;
4424;SDS011;2225;53.568;13.266;2022-11-15T01:20:43;77.30;;;38.00;;
4424;SDS011;2225;53.568;13.266;2022-11-15T01:23:29;71.73;;;37.60;;
4424;SDS011;2225;53.568;13.266;2022-11-15T01:26:15;81.03;;;39.10;;
4424;SDS011;2225;53.568;13.266;2022-11-15T01:29:01;78.57;;;38.37;;
4424;SDS011;2225;53.568;13.266;2022-11-15T01:31:47;77.70;;;37.00;;
4424;SDS011;2225;53.568;13.266;2022-11-15T01:34:32;70.20;;;36.00;;
4424;SDS011;2225;53.568;13.266;2022-11-15T01:37:17;73.07;;;38.80;;
4424;SDS011;2225;53.568;13.266;2022-11-15T01:40:03;75.37;;;35.77;;
4424;SDS011;2225;53.568;13.266;2022-11-15T01:42:49;81.20;;;37.40;;
4424;SDS011;2225;53.568;13.266;2022-11-15T01:45:34;83.80;;;37.97;;
4424;SDS011;2225;53.568;13.266;2022-11-15T01:48:19;78.43;;;39.30;;
4424;SDS011;2225;53.568;13.266;2022-11-15T01:51:08;71.63;;;36.40;;
4424;SDS011;2225;53.568;13.266;2022-11-15T01:53:56;69.93;;;36.10;;
4424;SDS011;2225;53.568;13.266;2022-11-15T01:56:49;66.20;;;34.30;;
4424;SDS011;2225;53.568;13.266;2022-11-15T01:59:44;78.40;;;37.57;;
4424;SDS011;2225;53.568;13.266;2022-11-15T02:02:30;72.97;;;37.97;;
4424;SDS011;2225;53.568;13.266;2022-11-15T02:05:17;78.73;;;35.60;;
4424;SDS011;2225;53.568;13.266;2022-11-15T02:08:02;66.43;;;34.80;;
4424;SDS011;2225;53.568;13.266;2022-11-15T02:10:48;71.33;;;37.10;;
4424;SDS011;2225;53.568;13.266;2022-11-15T02:13:33;88.07;;;39.80;;
4424;SDS011;2225;53.568;13.266;2022-11-15T02:19:45;76.77;;;40.50;;
4424;SDS011;2225;53.568;13.266;2022-11-15T02:23:24;69.13;;;35.50;;
4424;SDS011;2225;53.568;13.266;2022-11-15T02:37:05;67.47;;;35.10;;
4424;SDS011;2225;53.568;13.266;2022-11-15T02:40:21;66.53;;;36.27;;
4424;SDS011;2225;53.568;13.266;2022-11-15T02:43:25;67.07;;;36.87;;
4424;SDS011;2225;53.568;13.266;2022-11-15T02:46:40;61.13;;;34.07;;
4424;SDS011;2225;53.568;13.266;2022-11-15T02:49:57;66.93;;;36.20;;
4424;SDS011;2225;53.568;13.266;2022-11-15T02:52:48;67.70;;;36.60;;
4424;SDS011;2225;53.568;13.266;2022-11-15T02:55:38;73.50;;;35.70;;
4424;SDS011;2225;53.568;13.266;2022-11-15T02:58:34;61.67;;;30.97;;
4424;SDS011;2225;53.568;13.266;2022-11-15T03:01:34;65.33;;;33.83;;
4424;SDS011;2225;53.568;13.266;2022-11-15T03:04:59;67.23;;;35.80;;
4424;SDS011;2225;53.568;13.266;2022-11-15T03:08:21;65.83;;;35.47;;
4424;SDS011;2225;53.568;13.266;2022-11-15T03:11:47;69.77;;;35.90;;
4424;SDS011;2225;53.568;13.266;2022-11-15T03:14:45;67.47;;;36.20;;
4424;SDS011;2225;53.568;13.266;2022-11-15T03:17:45;71.07;;;35.77;;
4424;SDS011;2225;53.568;13.266;2022-11-15T03:20:37;70.03;;;36.60;;
4424;SDS011;2225;53.568;13.266;2022-11-15T03:23:23;67.30;;;37.03;;
4424;SDS011;2225;53.568;13.266;2022-11-15T03:26:11;69.30;;;36.60;;
4424;SDS011;2225;53.568;13.266;2022-11-15T03:29:09;66.57;;;34.20;;
4424;SDS011;2225;53.568;13.266;2022-11-15T03:32:06;65.50;;;34.20;;
4424;SDS011;2225;53.568;13.266;2022-11-15T03:35:00;67.20;;;34.60;;
4424;SDS011;2225;53.568;13.266;2022-11-15T03:37:52;59.50;;;31.53;;
4424;SDS011;2225;53.568;13.266;2022-11-15T03:41:14;66.43;;;33.40;;
4424;SDS011;2225;53.568;13.266;2022-11-15T03:47:32;65.07;;;31.77;;
4424;SDS011;2225;53.568;13.266;2022-11-15T03:50:24;66.13;;;34.07;;
4424;SDS011;2225;53.568;13.266;2022-11-15T03:53:11;66.80;;;32.50;;
4424;SDS011;2225;53.568;13.266;2022-11-15T03:55:58;63.23;;;34.17;;
4424;SDS011;2225;53.568;13.266;2022-11-15T03:58:43;58.43;;;32.87;;
4424;SDS011;2225;53.568;13.266;2022-11-15T04:01:28;60.43;;;31.90;;
4424;SDS011;2225;53.568;13.266;2022-11-15T04:04:14;57.00;;;31.63;;
4424;SDS011;2225;53.568;13.266;2022-11-15T04:06:59;58.43;;;31.63;;
4424;SDS011;2225;53.568;13.266;2022-11-15T04:09:45;64.20;;;34.10;;
4424;SDS011;2225;53.568;13.266;2022-11-15T04:12:50;55.63;;;29.57;;
4424;SDS011;2225;53.568;13.266;2022-11-15T04:15:35;53.53;;;29.70;;
4424;SDS011;2225;53.568;13.266;2022-11-15T04:18:21;51.60;;;28.73;;
4424;SDS011;2225;53.568;13.266;2022-11-15T04:21:08;54.33;;;29.27;;
4424;SDS011;2225;53.568;13.266;2022-11-15T04:24:12;56.93;;;31.07;;
4424;SDS011;2225;53.568;13.266;2022-11-15T04:26:57;57.10;;;30.97;;
4424;SDS011;2225;53.568;13.266;2022-11-15T04:29:42;62.70;;;30.70;;
4424;SDS011;2225;53.568;13.266;2022-11-15T04:32:28;63.67;;;32.53;;
4424;SDS011;2225;53.568;13.266;2022-11-15T04:35:13;63.07;;;33.83;;
4424;SDS011;2225;53.568;13.266;2022-11-15T04:37:59;56.57;;;32.20;;
4424;SDS011;2225;53.568;13.266;2022-11-15T04:40:45;58.10;;;34.33;;
4424;SDS011;2225;53.568;13.266;2022-11-15T04:43:31;64.83;;;33.40;;
4424;SDS011;2225;53.568;13.266;2022-11-15T04:46:17;57.27;;;31.20;;
4424;SDS011;2225;53.568;13.266;2022-11-15T04:49:02;62.87;;;32.23;;
4424;SDS011;2225;53.568;13.266;2022-11-15T04:51:48;67.50;;;34.20;;
4424;SDS011;2225;53.568;13.266;2022-11-15T04:54:33;62.03;;;32.83;;
4424;SDS011;2225;53.568;13.266;2022-11-15T04:57:19;64.97;;;34.60;;
4424;SDS011;2225;53.568;13.266;2022-11-15T05:00:05;60.00;;;31.97;;
4424;SDS011;2225;53.568;13.266;2022-11-15T05:02:53;58.00;;;29.90;;
4424;SDS011;2225;53.568;13.266;2022-11-15T05:05:57;56.80;;;30.50;;
4424;SDS011;2225;53.568;13.266;2022-11-15T05:08:43;57.23;;;31.30;;
4424;SDS011;2225;53.568;13.266;2022-11-15T05:11:29;54.10;;;29.97;;
4424;SDS011;2225;53.568;13.266;2022-11-15T05:14:14;58.00;;;30.30;;
4424;SDS011;2225;53.568;13.266;2022-11-15T05:17:00;58.17;;;32.87;;
4424;SDS011;2225;53.568;13.266;2022-11-15T05:19:45;58.97;;;31.13;;
4424;SDS011;2225;53.568;13.266;2022-11-15T05:22:31;54.83;;;31.47;;
4424;SDS011;2225;53.568;13.266;2022-11-15T05:25:16;51.90;;;28.77;;
4424;SDS011;2225;53.568;13.266;2022-11-15T05:28:01;54.57;;;30.43;;
4424;SDS011;2225;53.568;13.266;2022-11-15T05:30:47;59.77;;;30.70;;
4424;SDS011;2225;53.568;13.266;2022-11-15T05:33:33;53.30;;;29.83;;
4424;SDS011;2225;53.568;13.266;2022-11-15T05:39:19;270.03;;;33.10;;
4424;SDS011;2225;53.568;13.266;2022-11-15T05:44:55;250.30;;;31.57;;
4424;SDS011;2225;53.568;13.266;2022-11-15T05:47:42;201.03;;;28.67;;
4424;SDS011;2225;53.568;13.266;2022-11-15T05:50:29;223.93;;;28.47;;
4424;SDS011;2225;53.568;13.266;2022-11-15T05:53:16;312.80;;;29.60;;
4424;SDS011;2225;53.568;13.266;2022-11-15T05:56:05;238.03;;;29.73;;
4424;SDS011;2225;53.568;13.266;2022-11-15T05:58:52;334.33;;;31.70;;
4424;SDS011;2225;53.568;13.266;2022-11-15T06:01:43;306.93;;;34.27;;
4424;SDS011;2225;53.568;13.266;2022-11-15T06:04:29;350.70;;;36.37;;
4424;SDS011;2225;53.568;13.266;2022-11-15T06:07:14;354.67;;;39.13;;
4424;SDS011;2225;53.568;13.266;2022-11-15T06:10:00;236.40;;;29.93;;
4424;SDS011;2225;53.568;13.266;2022-11-15T06:12:46;271.97;;;32.90;;
4424;SDS011;2225;53.568;13.266;2022-11-15T06:15:32;246.23;;;32.73;;
4424;SDS011;2225;53.568;13.266;2022-11-15T06:18:19;191.20;;;33.40;;
4424;SDS011;2225;53.568;13.266;2022-11-15T06:21:04;214.37;;;28.03;;
4424;SDS011;2225;53.568;13.266;2022-11-15T06:23:50;210.13;;;31.10;;
4424;SDS011;2225;53.568;13.266;2022-11-15T06:26:36;200.97;;;28.33;;
4424;SDS011;2225;53.568;13.266;2022-11-15T06:29:21;137.20;;;25.97;;
4424;SDS011;2225;53.568;13.266;2022-11-15T06:32:06;174.60;;;31.70;;
4424;SDS011;2225;53.568;13.266;2022-11-15T06:34:52;200.07;;;31.37;;
4424;SDS011;2225;53.568;13.266;2022-11-15T06:37:37;174.53;;;30.00;;
4424;SDS011;2225;53.568;13.266;2022-11-15T06:40:22;88.77;;;27.23;;
4424;SDS011;2225;53.568;13.266;2022-11-15T06:43:08;116.90;;;28.80;;
4424;SDS011;2225;53.568;13.266;2022-11-15T06:45:53;168.90;;;30.73;;
4424;SDS011;2225;53.568;13.266;2022-11-15T06:48:38;85.93;;;28.50;;
4424;SDS011;2225;53.568;13.266;2022-11-15T06:51:24;177.40;;;32.80;;
4424;SDS011;2225;53.568;13.266;2022-11-15T06:54:09;64.87;;;31.43;;
4424;SDS011;2225;53.568;13.266;2022-11-15T06:56:54;111.90;;;33.67;;
4424;SDS011;2225;53.568;13.266;2022-11-15T06:59:39;70.43;;;30.00;;
4424;SDS011;2225;53.568;13.266;2022-11-15T07:02:25;128.97;;;34.80;;
4424;SDS011;2225;53.568;13.266;2022-11-15T07:05:11;68.43;;;31.40;;
4424;SDS011;2225;53.568;13.266;2022-11-15T07:07:58;59.33;;;30.47;;
4424;SDS011;2225;53.568;13.266;2022-11-15T07:10:44;59.03;;;29.90;;
4424;SDS011;2225;53.568;13.266;2022-11-15T07:13:30;50.90;;;29.00;;
4424;SDS011;2225;53.568;13.266;2022-11-15T07:16:18;48.20;;;27.90;;
4424;SDS011;2225;53.568;13.266;2022-11-15T07:19:04;51.60;;;30.57;;
4424;SDS011;2225;53.568;13.266;2022-11-15T07:21:49;42.60;;;27.00;;
4424;SDS011;2225;53.568;13.266;2022-11-15T07:24:34;48.90;;;27.53;;
4424;SDS011;2225;53.568;13.266;2022-11-15T07:27:20;52.20;;;26.13;;
4424;SDS011;2225;53.568;13.266;2022-11-15T07:30:06;51.83;;;29.07;;
4424;SDS011;2225;53.568;13.266;2022-11-15T07:32:52;51.30;;;28.70;;
4424;SDS011;2225;53.568;13.266;2022-11-15T07:35:42;51.77;;;27.80;;
4424;SDS011;2225;53.568;13.266;2022-11-15T07:38:31;50.93;;;28.53;;
4424;SDS011;2225;53.568;13.266;2022-11-15T07:41:24;54.47;;;29.60;;
4424;SDS011;2225;53.568;13.266;2022-11-15T07:44:10;58.67;;;32.07;;
4424;SDS011;2225;53.568;13.266;2022-11-15T07:46:55;60.67;;;33.60;;
4424;SDS011;2225;53.568;13.266;2022-11-15T07:49:40;56.10;;;30.60;;
4424;SDS011;2225;53.568;13.266;2022-11-15T07:52:25;47.20;;;29.30;;
4424;SDS011;2225;53.568;13.266;2022-11-15T07:55:11;61.60;;;33.47;;
4424;SDS011;2225;53.568;13.266;2022-11-15T07:58:01;54.70;;;31.53;;
4424;SDS011;2225;53.568;13.266;2022-11-15T08:00:51;53.07;;;33.33;;
4424;SDS011;2225;53.568;13.266;2022-11-15T08:03:37;55.80;;;32.10;;
4424;SDS011;2225;53.568;13.266;2022-11-15T08:06:22;56.47;;;33.10;;
4424;SDS011;2225;53.568;13.266;2022-11-15T08:09:08;57.40;;;30.87;;
4424;SDS011;2225;53.568;13.266;2022-11-15T08:11:53;56.93;;;30.00;;
4424;SDS011;2225;53.568;13.266;2022-11-15T08:14:39;74.00;;;35.17;;
4424;SDS011;2225;53.568;13.266;2022-11-15T08:17:24;59.73;;;33.10;;
4424;SDS011;2225;53.568;13.266;2022-11-15T08:20:10;58.03;;;31.93;;
4424;SDS011;2225;53.568;13.266;2022-11-15T08:22:56;56.63;;;33.37;;
4424;SDS011;2225;53.568;13.266;2022-11-15T08:25:45;56.83;;;32.57;;
4424;SDS011;2225;53.568;13.266;2022-11-15T08:28:31;65.07;;;33.23;;
4424;SDS011;2225;53.568;13.266;2022-11-15T08:31:17;53.27;;;31.27;;
4424;SDS011;2225;53.568;13.266;2022-11-15T08:34:03;59.23;;;32.17;;
4424;SDS011;2225;53.568;13.266;2022-11-15T08:36:49;61.23;;;32.93;;
4424;SDS011;2225;53.568;13.266;2022-11-15T08:39:34;66.47;;;33.53;;
4424;SDS011;2225;53.568;13.266;2022-11-15T08:42:19;76.53;;;32.60;;
4424;SDS011;2225;53.568;13.266;2022-11-15T08:45:05;82.77;;;34.70;;
4424;SDS011;2225;53.568;13.266;2022-11-15T08:47:52;100.73;;;34.23;;
4424;SDS011;2225;53.568;13.266;2022-11-15T08:50:38;66.47;;;32.27;;
4424;SDS011;2225;53.568;13.266;2022-11-15T08:53:23;48.80;;;28.60;;
4424;SDS011;2225;53.568;13.266;2022-11-15T08:56:09;59.80;;;34.13;;
4424;SDS011;2225;53.568;13.266;2022-11-15T08:58:57;56.97;;;30.90;;
4424;SDS011;2225;53.568;13.266;2022-11-15T09:01:42;69.53;;;33.33;;
4424;SDS011;2225;53.568;13.266;2022-11-15T09:04:27;76.33;;;35.57;;
4424;SDS011;2225;53.568;13.266;2022-11-15T09:07:13;94.37;;;37.40;;
4424;SDS011;2225;53.568;13.266;2022-11-15T09:09:59;76.30;;;36.90;;
4424;SDS011;2225;53.568;13.266;2022-11-15T09:12:45;73.03;;;39.50;;
4424;SDS011;2225;53.568;13.266;2022-11-15T09:15:33;63.90;;;33.40;;
4424;SDS011;2225;53.568;13.266;2022-11-15T09:18:18;61.30;;;32.60;;
4424;SDS011;2225;53.568;13.266;2022-11-15T09:21:07;79.03;;;35.80;;
4424;SDS011;2225;53.568;13.266;2022-11-15T09:23:53;69.40;;;34.90;;
4424;SDS011;2225;53.568;13.266;2022-11-15T09:26:39;69.43;;;36.23;;
4424;SDS011;2225;53.568;13.266;2022-11-15T09:29:24;67.50;;;38.37;;
4424;SDS011;2225;53.568;13.266;2022-11-15T09:32:10;68.73;;;35.80;;
4424;SDS011;2225;53.568;13.266;2022-11-15T09:34:55;58.87;;;34.30;;
4424;SDS011;2225;53.568;13.266;2022-11-15T09:37:41;58.53;;;33.80;;
4424;SDS011;2225;53.568;13.266;2022-11-15T09:40:27;54.70;;;31.10;;
4424;SDS011;2225;53.568;13.266;2022-11-15T09:49:41;48.50;;;28.30;;
4424;SDS011;2225;53.568;13.266;2022-11-15T09:52:16;54.33;;;33.77;;
4424;SDS011;2225;53.568;13.266;2022-11-15T09:54:46;56.67;;;33.03;;
4424;SDS011;2225;53.568;13.266;2022-11-15T09:57:21;56.23;;;31.80;;
4424;SDS011;2225;53.568;13.266;2022-11-15T10:00:16;51.47;;;32.07;;
4424;SDS011;2225;53.568;13.266;2022-11-15T10:05:55;48.97;;;28.73;;
4424;SDS011;2225;53.568;13.266;2022-11-15T10:11:15;45.70;;;28.67;;
4424;SDS011;2225;53.568;13.266;2022-11-15T10:14:08;57.13;;;32.23;;
4424;SDS011;2225;53.568;13.266;2022-11-15T10:20:02;45.77;;;29.73;;
4424;SDS011;2225;53.568;13.266;2022-11-15T10:22:52;53.83;;;31.83;;
4424;SDS011;2225;53.568;13.266;2022-11-15T10:25:26;55.93;;;29.40;;
4424;SDS011;2225;53.568;13.266;2022-11-15T10:27:57;49.27;;;32.20;;
4424;SDS011;2225;53.568;13.266;2022-11-15T10:30:38;48.90;;;30.07;;
4424;SDS011;2225;53.568;13.266;2022-11-15T10:33:12;55.27;;;31.63;;
4424;SDS011;2225;53.568;13.266;2022-11-15T10:41:18;55.73;;;29.97;;
4424;SDS011;2225;53.568;13.266;2022-11-15T10:44:10;52.37;;;31.70;;
4424;SDS011;2225;53.568;13.266;2022-11-15T10:46:48;48.27;;;29.63;;
4424;SDS011;2225;53.568;13.266;2022-11-15T10:49:52;63.53;;;33.73;;
4424;SDS011;2225;53.568;13.266;2022-11-15T10:52:25;57.57;;;34.50;;
4424;SDS011;2225;53.568;13.266;2022-11-15T10:57:54;52.23;;;32.87;;
4424;SDS011;2225;53.568;13.266;2022-11-15T11:00:45;51.90;;;30.97;;
4424;SDS011;2225;53.568;13.266;2022-11-15T11:03:28;53.07;;;31.13;;
4424;SDS011;2225;53.568;13.266;2022-11-15T11:06:05;46.73;;;30.70;;
4424;SDS011;2225;53.568;13.266;2022-11-15T11:08:52;49.80;;;30.87;;
4424;SDS011;2225;53.568;13.266;2022-11-15T11:14:32;55.37;;;29.33;;
4424;SDS011;2225;53.568;13.266;2022-11-15T11:17:05;46.73;;;28.80;;
4424;SDS011;2225;53.568;13.266;2022-11-15T11:28:48;46.93;;;28.27;;
4424;SDS011;2225;53.568;13.266;2022-11-15T11:31:50;45.93;;;29.40;;
4424;SDS011;2225;53.568;13.266;2022-11-15T11:34:29;44.50;;;28.03;;
4424;SDS011;2225;53.568;13.266;2022-11-15T11:37:35;45.80;;;28.90;;
4424;SDS011;2225;53.568;13.266;2022-11-15T11:46:05;45.77;;;27.67;;
4424;SDS011;2225;53.568;13.266;2022-11-15T11:51:40;46.50;;;31.07;;
4424;SDS011;2225;53.568;13.266;2022-11-15T11:57:22;51.47;;;27.60;;
4424;SDS011;2225;53.568;13.266;2022-11-15T12:00:15;46.13;;;29.50;;
4424;SDS011;2225;53.568;13.266;2022-11-15T12:02:55;46.70;;;29.80;;
4424;SDS011;2225;53.568;13.266;2022-11-15T12:05:54;45.37;;;29.80;;
4424;SDS011;2225;53.568;13.266;2022-11-15T12:08:45;44.37;;;28.77;;
4424;SDS011;2225;53.568;13.266;2022-11-15T12:11:28;45.40;;;28.80;;
4424;SDS011;2225;53.568;13.266;2022-11-15T12:14:04;48.17;;;29.60;;
4424;SDS011;2225;53.568;13.266;2022-11-15T12:16:40;39.93;;;27.33;;
4424;SDS011;2225;53.568;13.266;2022-11-15T12:19:09;44.70;;;26.77;;
4424;SDS011;2225;53.568;13.266;2022-11-15T12:21:50;44.90;;;28.17;;
4424;SDS011;2225;53.568;13.266;2022-11-15T12:24:34;46.77;;;27.97;;
4424;SDS011;2225;53.568;13.266;2022-11-15T12:27:16;45.30;;;28.43;;
4424;SDS011;2225;53.568;13.266;2022-11-15T12:30:08;47.30;;;28.67;;
4424;SDS011;2225;53.568;13.266;2022-11-15T12:32:48;46.60;;;28.83;;
4424;SDS011;2225;53.568;13.266;2022-11-15T12:35:37;46.20;;;30.00;;
4424;SDS011;2225;53.568;13.266;2022-11-15T12:38:11;44.43;;;28.90;;
4424;SDS011;2225;53.568;13.266;2022-11-15T12:43:41;40.00;;;26.37;;
4424;SDS011;2225;53.568;13.266;2022-11-15T12:46:11;43.73;;;25.37;;
4424;SDS011;2225;53.568;13.266;2022-11-15T13:12:57;44.43;;;27.67;;
4424;SDS011;2225;53.568;13.266;2022-11-15T13:15:31;41.10;;;26.50;;
4424;SDS011;2225;53.568;13.266;2022-11-15T13:20:54;47.67;;;27.80;;
4424;SDS011;2225;53.568;13.266;2022-11-15T13:23:27;46.57;;;29.77;;
4424;SDS011;2225;53.568;13.266;2022-11-15T13:25:57;47.70;;;30.17;;
4424;SDS011;2225;53.568;13.266;2022-11-15T13:28:46;45.47;;;29.97;;
4424;SDS011;2225;53.568;13.266;2022-11-15T13:31:23;53.47;;;30.23;;
4424;SDS011;2225;53.568;13.266;2022-11-15T13:33:57;39.57;;;25.10;;
4424;SDS011;2225;53.568;13.266;2022-11-15T13:36:32;43.33;;;27.53;;
4424;SDS011;2225;53.568;13.266;2022-11-15T13:41:59;48.97;;;28.70;;
4424;SDS011;2225;53.568;13.266;2022-11-15T13:44:30;42.37;;;27.50;;
4424;SDS011;2225;53.568;13.266;2022-11-15T13:49:39;43.07;;;26.27;;
4424;SDS011;2225;53.568;13.266;2022-11-15T13:52:07;39.40;;;25.57;;
4424;SDS011;2225;53.568;13.266;2022-11-15T13:54:41;41.83;;;25.93;;
4424;SDS011;2225;53.568;13.266;2022-11-15T13:57:26;49.63;;;28.90;;
4424;SDS011;2225;53.568;13.266;2022-11-15T14:00:02;47.80;;;28.17;;
4424;SDS011;2225;53.568;13.266;2022-11-15T14:02:38;44.70;;;27.87;;
4424;SDS011;2225;53.568;13.266;2022-11-15T14:05:14;53.07;;;29.50;;
4424;SDS011;2225;53.568;13.266;2022-11-15T14:08:01;42.70;;;26.60;;
4424;SDS011;2225;53.568;13.266;2022-11-15T14:10:44;52.90;;;31.80;;
4424;SDS011;2225;53.568;13.266;2022-11-15T14:13:26;54.87;;;28.03;;
4424;SDS011;2225;53.568;13.266;2022-11-15T14:16:12;44.93;;;26.83;;
4424;SDS011;2225;53.568;13.266;2022-11-15T14:18:46;54.07;;;26.13;;
4424;SDS011;2225;53.568;13.266;2022-11-15T14:21:17;47.27;;;25.83;;
4424;SDS011;2225;53.568;13.266;2022-11-15T14:23:46;44.40;;;26.10;;
4424;SDS011;2225;53.568;13.266;2022-11-15T14:26:26;45.93;;;28.33;;
4424;SDS011;2225;53.568;13.266;2022-11-15T14:32:05;48.00;;;27.47;;
4424;SDS011;2225;53.568;13.266;2022-11-15T14:34:43;55.67;;;29.23;;
4424;SDS011;2225;53.568;13.266;2022-11-15T14:37:18;52.17;;;28.27;;
4424;SDS011;2225;53.568;13.266;2022-11-15T14:39:53;45.67;;;27.47;;
4424;SDS011;2225;53.568;13.266;2022-11-15T14:42:21;59.40;;;28.00;;
4424;SDS011;2225;53.568;13.266;2022-11-15T14:44:49;63.80;;;31.13;;
4424;SDS011;2225;53.568;13.266;2022-11-15T14:47:17;59.73;;;29.47;;
4424;SDS011;2225;53.568;13.266;2022-11-15T14:49:44;48.27;;;28.90;;
4424;SDS011;2225;53.568;13.266;2022-11-15T14:52:31;52.17;;;29.57;;
4424;SDS011;2225;53.568;13.266;2022-11-15T14:55:03;45.20;;;26.50;;
4424;SDS011;2225;53.568;13.266;2022-11-15T14:57:40;50.10;;;27.43;;
4424;SDS011;2225;53.568;13.266;2022-11-15T15:00:07;49.33;;;27.10;;
4424;SDS011;2225;53.568;13.266;2022-11-15T15:02:38;65.03;;;31.70;;
4424;SDS011;2225;53.568;13.266;2022-11-15T15:05:12;61.20;;;32.57;;
4424;SDS011;2225;53.568;13.266;2022-11-15T15:07:52;49.20;;;28.13;;
4424;SDS011;2225;53.568;13.266;2022-11-15T15:10:19;50.77;;;28.33;;
4424;SDS011;2225;53.568;13.266;2022-11-15T15:13:10;56.93;;;27.73;;
4424;SDS011;2225;53.568;13.266;2022-11-15T15:15:48;58.77;;;31.33;;
4424;SDS011;2225;53.568;13.266;2022-11-15T15:18:17;91.30;;;31.73;;
4424;SDS011;2225;53.568;13.266;2022-11-15T15:20:47;60.63;;;28.47;;
4424;SDS011;2225;53.568;13.266;2022-11-15T15:23:22;61.77;;;30.23;;
4424;SDS011;2225;53.568;13.266;2022-11-15T15:25:51;70.90;;;34.73;;
4424;SDS011;2225;53.568;13.266;2022-11-15T15:28:19;67.17;;;36.20;;
4424;SDS011;2225;53.568;13.266;2022-11-15T15:30:46;66.07;;;33.73;;
4424;SDS011;2225;53.568;13.266;2022-11-15T15:33:13;97.40;;;36.50;;
4424;SDS011;2225;53.568;13.266;2022-11-15T15:35:39;69.60;;;34.57;;
4424;SDS011;2225;53.568;13.266;2022-11-15T15:38:08;93.57;;;35.90;;
4424;SDS011;2225;53.568;13.266;2022-11-15T15:40:38;69.97;;;33.00;;
4424;SDS011;2225;53.568;13.266;2022-11-15T15:43:05;96.80;;;33.17;;
4424;SDS011;2225;53.568;13.266;2022-11-15T15:45:36;85.10;;;35.40;;
4424;SDS011;2225;53.568;13.266;2022-11-15T15:48:05;78.53;;;34.23;;
4424;SDS011;2225;53.568;13.266;2022-11-15T15:50:34;70.17;;;34.40;;
4424;SDS011;2225;53.568;13.266;2022-11-15T15:53:02;67.60;;;32.30;;
4424;SDS011;2225;53.568;13.266;2022-11-15T15:55:30;76.03;;;32.20;;
4424;SDS011;2225;53.568;13.266;2022-11-15T15:57:57;76.53;;;30.87;;
4424;SDS011;2225;53.568;13.266;2022-11-15T16:00:25;63.97;;;31.13;;
4424;SDS011;2225;53.568;13.266;2022-11-15T16:02:52;59.77;;;31.47;;
4424;SDS011;2225;53.568;13.266;2022-11-15T16:05:20;65.03;;;30.73;;
4424;SDS011;2225;53.568;13.266;2022-11-15T16:07:48;55.87;;;31.77;;
4424;SDS011;2225;53.568;13.266;2022-11-15T16:10:25;63.17;;;33.00;;
4424;SDS011;2225;53.568;13.266;2022-11-15T16:12:56;88.13;;;29.73;;
4424;SDS011;2225;53.568;13.266;2022-11-15T16:15:24;61.43;;;28.07;;
4424;SDS011;2225;53.568;13.266;2022-11-15T16:17:54;71.20;;;32.50;;
4424;SDS011;2225;53.568;13.266;2022-11-15T16:20:30;65.90;;;29.50;;
4424;SDS011;2225;53.568;13.266;2022-11-15T16:23:07;64.03;;;29.60;;
4424;SDS011;2225;53.568;13.266;2022-11-15T16:25:37;78.43;;;31.70;;
4424;SDS011;2225;53.568;13.266;2022-11-15T16:28:26;60.53;;;31.50;;
4424;SDS011;2225;53.568;13.266;2022-11-15T16:31:02;77.47;;;28.50;;
4424;SDS011;2225;53.568;13.266;2022-11-15T16:33:32;72.37;;;32.17;;
4424;SDS011;2225;53.568;13.266;2022-11-15T16:35:59;62.93;;;28.73;;
4424;SDS011;2225;53.568;13.266;2022-11-15T16:38:27;67.03;;;27.37;;
4424;SDS011;2225;53.568;13.266;2022-11-15T16:40:54;66.20;;;32.57;;
4424;SDS011;2225;53.568;13.266;2022-11-15T16:43:21;70.77;;;33.30;;
4424;SDS011;2225;53.568;13.266;2022-11-15T16:45:48;58.40;;;29.83;;
4424;SDS011;2225;53.568;13.266;2022-11-15T16:48:19;88.63;;;29.90;;
4424;SDS011;2225;53.568;13.266;2022-11-15T16:50:55;83.90;;;30.43;;
4424;SDS011;2225;53.568;13.266;2022-11-15T16:53:24;62.20;;;29.80;;
4424;SDS011;2225;53.568;13.266;2022-11-15T16:55:53;53.00;;;27.03;;
4424;SDS011;2225;53.568;13.266;2022-11-15T16:58:20;69.10;;;30.10;;
4424;SDS011;2225;53.568;13.266;2022-11-15T17:00:51;58.03;;;28.00;;
4424;SDS011;2225;53.568;13.266;2022-11-15T17:03:20;78.53;;;28.47;;
4424;SDS011;2225;53.568;13.266;2022-11-15T17:05:50;57.30;;;27.60;;
4424;SDS011;2225;53.568;13.266;2022-11-15T17:08:17;53.40;;;27.70;;
4424;SDS011;2225;53.568;13.266;2022-11-15T17:10:46;88.50;;;33.20;;
4424;SDS011;2225;53.568;13.266;2022-11-15T17:13:13;79.63;;;30.87;;
4424;SDS011;2225;53.568;13.266;2022-11-15T17:15:40;64.67;;;30.80;;
4424;SDS011;2225;53.568;13.266;2022-11-15T17:18:11;63.60;;;29.43;;
4424;SDS011;2225;53.568;13.266;2022-11-15T17:20:39;102.10;;;36.10;;
4424;SDS011;2225;53.568;13.266;2022-11-15T17:23:10;68.23;;;30.67;;
4424;SDS011;2225;53.568;13.266;2022-11-15T17:25:39;93.43;;;36.40;;
4424;SDS011;2225;53.568;13.266;2022-11-15T17:28:07;86.63;;;36.00;;
4424;SDS011;2225;53.568;13.266;2022-11-15T17:30:33;77.67;;;34.50;;
4424;SDS011;2225;53.568;13.266;2022-11-15T17:33:00;98.77;;;38.23;;
4424;SDS011;2225;53.568;13.266;2022-11-15T17:35:27;119.83;;;37.57;;
4424;SDS011;2225;53.568;13.266;2022-11-15T17:37:54;107.63;;;38.93;;
4424;SDS011;2225;53.568;13.266;2022-11-15T17:40:21;116.03;;;38.23;;
4424;SDS011;2225;53.568;13.266;2022-11-15T17:42:48;82.23;;;36.30;;
4424;SDS011;2225;53.568;13.266;2022-11-15T17:45:15;86.17;;;35.33;;
4424;SDS011;2225;53.568;13.266;2022-11-15T17:47:42;145.67;;;40.57;;
4424;SDS011;2225;53.568;13.266;2022-11-15T17:50:09;92.70;;;41.20;;
4424;SDS011;2225;53.568;13.266;2022-11-15T17:52:36;120.60;;;39.40;;